sensor_id;sensor_type;location;lat;lon;timestamp;pressure;altitude;pressure_sealevel;temperature;humidity
60337;BME280;46978;50.288;28.624;2024-03-06T00:00:16;99211.08;;;2.89;96.25
60337;BME280;46978;50.288;28.624;2024-03-06T00:01:18;99208.52;;;2.89;96.28
60337;BME280;46978;50.288;28.624;2024-03-06T00:02:19;99215.35;;;2.89;96.05
60337;BME280;46978;50.288;28.624;2024-03-06T00:03:21;99217.05;;;2.90;96.25
60337;BME280;46978;50.288;28.624;2024-03-06T00:04:22;99211.08;;;2.89;96.46
60337;BME280;46978;50.288;28.624;2024-03-06T00:05:24;99216.20;;;2.89;96.56
60337;BME280;46978;50.288;28.624;2024-03-06T00:06:26;99217.03;;;2.88;96.52
60337;BME280;46978;50.288;28.624;2024-03-06T00:07:27;99214.47;;;2.88;96.59
60337;BME280;46978;50.288;28.624;2024-03-06T00:08:29;99223.89;;;2.89;96.69
60337;BME280;46978;50.288;28.624;2024-03-06T00:09:30;99217.88;;;2.85;96.86
60337;BME280;46978;50.288;28.624;2024-03-06T00:10:32;99223.02;;;2.87;96.90
60337;BME280;46978;50.288;28.624;2024-03-06T00:11:34;99218.72;;;2.84;97.03
60337;BME280;46978;50.288;28.624;2024-03-06T00:12:36;99221.27;;;2.83;96.82
60337;BME280;46978;50.288;28.624;2024-03-06T00:13:37;99221.27;;;2.83;96.80
60337;BME280;46978;50.288;28.624;2024-03-06T00:14:39;99216.97;;;2.82;97.08
60337;BME280;46978;50.288;28.624;2024-03-06T00:15:40;99216.95;;;2.80;96.97
60337;BME280;46978;50.288;28.624;2024-03-06T00:16:42;99213.55;;;2.80;97.15
60337;BME280;46978;50.288;28.624;2024-03-06T00:17:44;99219.52;;;2.80;97.05
60337;BME280;46978;50.288;28.624;2024-03-06T00:18:46;99229.78;;;2.82;97.35
60337;BME280;46978;50.288;28.624;2024-03-06T00:19:48;99218.66;;;2.80;97.28
60337;BME280;46978;50.288;28.624;2024-03-06T00:20:50;99214.39;;;2.80;97.08
60337;BME280;46978;50.288;28.624;2024-03-06T00:21:51;99216.10;;;2.80;96.99
60337;BME280;46978;50.288;28.624;2024-03-06T00:22:53;99215.27;;;2.81;97.10
60337;BME280;46978;50.288;28.624;2024-03-06T00:23:54;99217.83;;;2.81;97.16
60337;BME280;46978;50.288;28.624;2024-03-06T00:24:56;99219.53;;;2.82;97.25
60337;BME280;46978;50.288;28.624;2024-03-06T00:25:57;99219.52;;;2.80;97.33
60337;BME280;46978;50.288;28.624;2024-03-06T00:26:59;99211.83;;;2.80;97.29
60337;BME280;46978;50.288;28.624;2024-03-06T00:28:00;99216.10;;;2.80;97.31
60337;BME280;46978;50.288;28.624;2024-03-06T00:29:02;99218.65;;;2.78;97.26
60337;BME280;46978;50.288;28.624;2024-03-06T00:30:05;99212.69;;;2.79;97.13
60337;BME280;46978;50.288;28.624;2024-03-06T00:31:07;99210.96;;;2.78;97.09
60337;BME280;46978;50.288;28.624;2024-03-06T00:32:08;99211.81;;;2.79;97.14
60337;BME280;46978;50.288;28.624;2024-03-06T00:33:10;99210.11;;;2.78;97.08
60337;BME280;46978;50.288;28.624;2024-03-06T00:34:12;99218.65;;;2.78;97.14
60337;BME280;46978;50.288;28.624;2024-03-06T00:35:13;99212.67;;;2.78;97.13
60337;BME280;46978;50.288;28.624;2024-03-06T00:36:15;99210.11;;;2.78;97.18
60337;BME280;46978;50.288;28.624;2024-03-06T00:37:17;99217.81;;;2.79;97.12
60337;BME280;46978;50.288;28.624;2024-03-06T00:38:18;99216.07;;;2.77;97.14
60337;BME280;46978;50.288;28.624;2024-03-06T00:39:20;99220.34;;;2.76;97.37
60337;BME280;46978;50.288;28.624;2024-03-06T00:40:22;99211.78;;;2.76;97.29
60337;BME280;46978;50.288;28.624;2024-03-06T00:41:23;99213.47;;;2.74;97.44
60337;BME280;46978;50.288;28.624;2024-03-06T00:42:25;99211.76;;;2.74;97.39
60337;BME280;46978;50.288;28.624;2024-03-06T00:43:26;99214.33;;;2.74;97.49
60337;BME280;46978;50.288;28.624;2024-03-06T00:44:28;99217.77;;;2.75;97.51
60337;BME280;46978;50.288;28.624;2024-03-06T00:45:29;99221.16;;;2.74;97.52
60337;BME280;46978;50.288;28.624;2024-03-06T00:46:31;99217.75;;;2.73;97.53
60337;BME280;46978;50.288;28.624;2024-03-06T00:47:32;99216.02;;;2.72;97.51
60337;BME280;46978;50.288;28.624;2024-03-06T00:48:34;99216.87;;;2.73;97.50
60337;BME280;46978;50.288;28.624;2024-03-06T00:49:36;99214.30;;;2.73;97.55
60337;BME280;46978;50.288;28.624;2024-03-06T00:50:37;99215.19;;;2.73;97.48
60337;BME280;46978;50.288;28.624;2024-03-06T00:51:39;99209.18;;;2.73;97.47
60337;BME280;46978;50.288;28.624;2024-03-06T00:53:00;99204.95;;;2.75;97.49
60337;BME280;46978;50.288;28.624;2024-03-06T00:54:02;99208.34;;;2.74;97.56
60337;BME280;46978;50.288;28.624;2024-03-06T00:55:05;99217.77;;;2.75;97.55
60337;BME280;46978;50.288;28.624;2024-03-06T00:56:07;99212.64;;;2.75;97.52
60337;BME280;46978;50.288;28.624;2024-03-06T00:57:09;99213.48;;;2.75;97.51
60337;BME280;46978;50.288;28.624;2024-03-06T00:58:11;99211.78;;;2.76;97.44
60337;BME280;46978;50.288;28.624;2024-03-06T00:59:12;99210.11;;;2.78;97.31
60337;BME280;46978;50.288;28.624;2024-03-06T01:00:15;99207.55;;;2.78;97.24
60337;BME280;46978;50.288;28.624;2024-03-06T01:01:17;99209.23;;;2.77;97.32
60337;BME280;46978;50.288;28.624;2024-03-06T01:02:18;99210.11;;;2.78;97.31
60337;BME280;46978;50.288;28.624;2024-03-06T01:03:20;99210.09;;;2.76;97.49
60337;BME280;46978;50.288;28.624;2024-03-06T01:04:22;99212.66;;;2.76;97.53
60337;BME280;46978;50.288;28.624;2024-03-06T01:05:24;99221.20;;;2.77;97.74
60337;BME280;46978;50.288;28.624;2024-03-06T01:06:25;99220.34;;;2.76;97.69
60337;BME280;46978;50.288;28.624;2024-03-06T01:07:27;99226.34;;;2.78;97.64
60337;BME280;46978;50.288;28.624;2024-03-06T01:08:28;99221.21;;;2.78;97.62
60337;BME280;46978;50.288;28.624;2024-03-06T01:09:30;99222.92;;;2.78;97.49
60337;BME280;46978;50.288;28.624;2024-03-06T01:10:32;99222.92;;;2.78;97.41
60337;BME280;46978;50.288;28.624;2024-03-06T01:11:33;99222.92;;;2.78;97.58
60337;BME280;46978;50.288;28.624;2024-03-06T01:12:35;99224.59;;;2.76;97.69
60337;BME280;46978;50.288;28.624;2024-03-06T01:13:45;99225.45;;;2.75;97.68
60337;BME280;46978;50.288;28.624;2024-03-06T01:14:47;99223.73;;;2.75;97.71
60337;BME280;46978;50.288;28.624;2024-03-06T01:15:49;99227.15;;;2.76;97.68
60337;BME280;46978;50.288;28.624;2024-03-06T01:16:50;99228.02;;;2.75;97.68
60337;BME280;46978;50.288;28.624;2024-03-06T01:17:52;99228.02;;;2.75;97.82
60337;BME280;46978;50.288;28.624;2024-03-06T01:18:53;99226.30;;;2.75;97.80
60337;BME280;46978;50.288;28.624;2024-03-06T01:19:55;99233.14;;;2.75;97.82
60337;BME280;46978;50.288;28.624;2024-03-06T01:20:57;99232.23;;;2.73;97.98
60337;BME280;46978;50.288;28.624;2024-03-06T01:21:58;99233.10;;;2.72;98.22
60337;BME280;46978;50.288;28.624;2024-03-06T01:23:00;99233.94;;;2.71;98.24
60337;BME280;46978;50.288;28.624;2024-03-06T01:24:02;99235.65;;;2.70;98.33
60337;BME280;46978;50.288;28.624;2024-03-06T01:25:04;99230.51;;;2.68;98.27
60337;BME280;46978;50.288;28.624;2024-03-06T01:26:05;99238.19;;;2.68;98.47
60337;BME280;46978;50.288;28.624;2024-03-06T01:27:08;99241.59;;;2.67;98.72
60337;BME280;46978;50.288;28.624;2024-03-06T01:28:09;99241.59;;;2.67;98.69
60337;BME280;46978;50.288;28.624;2024-03-06T01:29:11;99235.61;;;2.67;98.61
60337;BME280;46978;50.288;28.624;2024-03-06T01:30:13;99233.86;;;2.64;98.90
60337;BME280;46978;50.288;28.624;2024-03-06T01:31:15;99243.28;;;2.65;98.85
60337;BME280;46978;50.288;28.624;2024-03-06T01:32:16;99242.40;;;2.65;98.90
60337;BME280;46978;50.288;28.624;2024-03-06T01:33:18;99241.57;;;2.66;98.84
60337;BME280;46978;50.288;28.624;2024-03-06T01:34:20;99242.40;;;2.65;99.15
60337;BME280;46978;50.288;28.624;2024-03-06T01:35:21;99239.83;;;2.62;99.09
60337;BME280;46978;50.288;28.624;2024-03-06T01:36:23;99236.41;;;2.63;99.12
60337;BME280;46978;50.288;28.624;2024-03-06T01:37:24;99238.98;;;2.64;99.05
60337;BME280;46978;50.288;28.624;2024-03-06T01:38:26;99244.11;;;2.64;99.05
60337;BME280;46978;50.288;28.624;2024-03-06T01:39:27;99238.98;;;2.64;98.89
60337;BME280;46978;50.288;28.624;2024-03-06T01:40:29;99243.28;;;2.65;98.80
60337;BME280;46978;50.288;28.624;2024-03-06T01:41:31;99239.86;;;2.66;98.84
60337;BME280;46978;50.288;28.624;2024-03-06T01:42:32;99237.30;;;2.66;98.81
60337;BME280;46978;50.288;28.624;2024-03-06T01:43:37;99242.41;;;2.66;98.74
60337;BME280;46978;50.288;28.624;2024-03-06T01:44:38;99240.73;;;2.67;98.47
60337;BME280;46978;50.288;28.624;2024-03-06T01:45:40;99239.00;;;2.66;98.44
60337;BME280;46978;50.288;28.624;2024-03-06T01:46:45;99236.45;;;2.66;98.54
60337;BME280;46978;50.288;28.624;2024-03-06T01:47:47;99236.45;;;2.66;98.65
60337;BME280;46978;50.288;28.624;2024-03-06T01:48:49;99243.28;;;2.65;98.71
60337;BME280;46978;50.288;28.624;2024-03-06T01:49:50;99238.98;;;2.64;98.69
60337;BME280;46978;50.288;28.624;2024-03-06T01:50:57;99239.84;;;2.65;98.63
60337;BME280;46978;50.288;28.624;2024-03-06T01:52:00;99240.72;;;2.65;98.51
60337;BME280;46978;50.288;28.624;2024-03-06T01:53:03;99238.16;;;2.65;98.36
60337;BME280;46978;50.288;28.624;2024-03-06T01:54:04;99242.40;;;2.65;98.23
60337;BME280;46978;50.288;28.624;2024-03-06T01:55:07;99240.72;;;2.65;98.32
60337;BME280;46978;50.288;28.624;2024-03-06T01:56:09;99242.40;;;2.65;98.40
60337;BME280;46978;50.288;28.624;2024-03-06T01:57:12;99237.30;;;2.66;98.39
60337;BME280;46978;50.288;28.624;2024-03-06T01:58:14;99236.46;;;2.67;98.35
60337;BME280;46978;50.288;28.624;2024-03-06T01:59:18;99237.31;;;2.68;98.25
60337;BME280;46978;50.288;28.624;2024-03-06T02:00:22;99244.16;;;2.69;98.29
60337;BME280;46978;50.288;28.624;2024-03-06T02:01:24;99239.00;;;2.66;98.26
60337;BME280;46978;50.288;28.624;2024-03-06T02:02:25;99239.00;;;2.66;98.26
60337;BME280;46978;50.288;28.624;2024-03-06T02:03:27;99239.00;;;2.66;98.17
60337;BME280;46978;50.288;28.624;2024-03-06T02:04:29;99239.84;;;2.65;98.12
60337;BME280;46978;50.288;28.624;2024-03-06T02:05:32;99244.11;;;2.64;98.13
60337;BME280;46978;50.288;28.624;2024-03-06T02:06:34;99239.00;;;2.66;98.07
60337;BME280;46978;50.288;28.624;2024-03-06T02:07:36;99246.71;;;2.67;98.07
60337;BME280;46978;50.288;28.624;2024-03-06T02:08:39;99243.31;;;2.68;98.14
60337;BME280;46978;50.288;28.624;2024-03-06T02:09:40;99241.59;;;2.67;97.97
60337;BME280;46978;50.288;28.624;2024-03-06T02:10:44;99243.28;;;2.65;98.08
60337;BME280;46978;50.288;28.624;2024-03-06T02:11:46;99243.28;;;2.65;98.01
60337;BME280;46978;50.288;28.624;2024-03-06T02:12:48;99245.84;;;2.65;97.83
60337;BME280;46978;50.288;28.624;2024-03-06T02:13:50;99245.83;;;2.64;97.86
60337;BME280;46978;50.288;28.624;2024-03-06T02:14:51;99243.27;;;2.64;97.84
60337;BME280;46978;50.288;28.624;2024-03-06T02:15:53;99248.41;;;2.65;97.81
60337;BME280;46978;50.288;28.624;2024-03-06T02:16:55;99241.55;;;2.64;97.85
60337;BME280;46978;50.288;28.624;2024-03-06T02:17:57;99244.96;;;2.65;97.74
60337;BME280;46978;50.288;28.624;2024-03-06T02:18:59;99249.23;;;2.64;97.58
60337;BME280;46978;50.288;28.624;2024-03-06T02:20:01;99251.78;;;2.63;97.78
60337;BME280;46978;50.288;28.624;2024-03-06T02:21:03;99253.49;;;2.62;97.91
60337;BME280;46978;50.288;28.624;2024-03-06T02:22:06;99249.20;;;2.61;97.95
60337;BME280;46978;50.288;28.624;2024-03-06T02:23:08;99249.20;;;2.61;97.79
60337;BME280;46978;50.288;28.624;2024-03-06T02:24:10;99252.63;;;2.60;97.92
60337;BME280;46978;50.288;28.624;2024-03-06T02:25:12;99256.88;;;2.61;97.93
60337;BME280;46978;50.288;28.624;2024-03-06T02:26:14;99254.34;;;2.63;97.92
60337;BME280;46978;50.288;28.624;2024-03-06T02:27:15;99255.20;;;2.62;97.86
60337;BME280;46978;50.288;28.624;2024-03-06T02:28:17;99252.66;;;2.63;97.73
60337;BME280;46978;50.288;28.624;2024-03-06T02:29:18;99255.22;;;2.63;97.71
60337;BME280;46978;50.288;28.624;2024-03-06T02:30:20;99249.23;;;2.64;97.69
60337;BME280;46978;50.288;28.624;2024-03-06T02:31:22;99252.65;;;2.65;97.69
60337;BME280;46978;50.288;28.624;2024-03-06T02:32:24;99253.52;;;2.64;97.54
60337;BME280;46978;50.288;28.624;2024-03-06T02:33:26;99253.49;;;2.62;97.64
60337;BME280;46978;50.288;28.624;2024-03-06T02:34:27;99252.63;;;2.60;97.61
60337;BME280;46978;50.288;28.624;2024-03-06T02:35:29;99247.50;;;2.60;97.72
60337;BME280;46978;50.288;28.624;2024-03-06T02:36:31;99250.06;;;2.60;97.92
60337;BME280;46978;50.288;28.624;2024-03-06T02:37:32;99261.16;;;2.61;97.81
60337;BME280;46978;50.288;28.624;2024-03-06T02:38:34;99256.03;;;2.61;97.87
60337;BME280;46978;50.288;28.624;2024-03-06T02:39:35;99249.20;;;2.61;97.90
60337;BME280;46978;50.288;28.624;2024-03-06T02:40:37;99254.32;;;2.61;97.90
60337;BME280;46978;50.288;28.624;2024-03-06T02:41:38;99250.93;;;2.62;97.85
60337;BME280;46978;50.288;28.624;2024-03-06T02:42:40;99256.05;;;2.62;97.79
60337;BME280;46978;50.288;28.624;2024-03-06T02:43:42;99251.77;;;2.61;97.66
60337;BME280;46978;50.288;28.624;2024-03-06T02:44:43;99259.41;;;2.58;97.81
60337;BME280;46978;50.288;28.624;2024-03-06T02:45:45;99256.84;;;2.58;97.92
60337;BME280;46978;50.288;28.624;2024-03-06T02:46:48;99244.90;;;2.57;97.98
60337;BME280;46978;50.288;28.624;2024-03-06T02:47:50;99249.14;;;2.57;97.96
60337;BME280;46978;50.288;28.624;2024-03-06T02:48:51;99254.27;;;2.57;97.83
60337;BME280;46978;50.288;28.624;2024-03-06T02:49:53;99249.14;;;2.57;97.86
60337;BME280;46978;50.288;28.624;2024-03-06T02:50:55;99247.44;;;2.56;97.94
60337;BME280;46978;50.288;28.624;2024-03-06T02:51:57;99252.56;;;2.56;97.94
60337;BME280;46978;50.288;28.624;2024-03-06T02:52:58;99255.13;;;2.56;97.94
60337;BME280;46978;50.288;28.624;2024-03-06T02:54:00;99251.66;;;2.54;97.93
60337;BME280;46978;50.288;28.624;2024-03-06T02:55:02;99253.37;;;2.53;97.98
60337;BME280;46978;50.288;28.624;2024-03-06T02:56:04;99253.37;;;2.53;97.98
60337;BME280;46978;50.288;28.624;2024-03-06T02:57:06;99246.52;;;2.52;97.93
60337;BME280;46978;50.288;28.624;2024-03-06T02:58:08;99256.81;;;2.55;97.96
60337;BME280;46978;50.288;28.624;2024-03-06T02:59:10;99244.84;;;2.53;97.63
60337;BME280;46978;50.288;28.624;2024-03-06T03:00:13;99253.36;;;2.51;97.62
60337;BME280;46978;50.288;28.624;2024-03-06T03:01:15;99238.82;;;2.50;97.67
60337;BME280;46978;50.288;28.624;2024-03-06T03:02:17;99248.23;;;2.51;97.79
60337;BME280;46978;50.288;28.624;2024-03-06T03:03:18;99249.97;;;2.53;97.65
60337;BME280;46978;50.288;28.624;2024-03-06T03:04:20;99248.25;;;2.53;97.42
60337;BME280;46978;50.288;28.624;2024-03-06T03:05:21;99242.28;;;2.53;97.43
60337;BME280;46978;50.288;28.624;2024-03-06T03:06:43;99249.08;;;2.52;97.49
60337;BME280;46978;50.288;28.624;2024-03-06T03:07:44;99249.08;;;2.52;97.46
60337;BME280;46978;50.288;28.624;2024-03-06T03:08:46;99244.86;;;2.54;97.39
60337;BME280;46978;50.288;28.624;2024-03-06T03:09:48;99249.97;;;2.53;97.27
60337;BME280;46978;50.288;28.624;2024-03-06T03:10:49;99255.92;;;2.51;97.25
60337;BME280;46978;50.288;28.624;2024-03-06T03:11:51;99256.77;;;2.52;97.29
60337;BME280;46978;50.288;28.624;2024-03-06T03:12:53;99249.95;;;2.51;97.26
60337;BME280;46978;50.288;28.624;2024-03-06T03:13:54;99258.46;;;2.50;97.38
60337;BME280;46978;50.288;28.624;2024-03-06T03:14:56;99254.19;;;2.50;97.36
60337;BME280;46978;50.288;28.624;2024-03-06T03:15:57;99256.75;;;2.50;97.22
60337;BME280;46978;50.288;28.624;2024-03-06T03:17:00;99246.41;;;2.43;97.17
60337;BME280;46978;50.288;28.624;2024-03-06T03:18:02;99260.17;;;2.49;97.33
60337;BME280;46978;50.288;28.624;2024-03-06T03:19:03;99259.30;;;2.49;97.29
60337;BME280;46978;50.288;28.624;2024-03-06T03:20:06;99266.12;;;2.48;97.40
60337;BME280;46978;50.288;28.624;2024-03-06T03:21:09;99258.44;;;2.48;97.33
60337;BME280;46978;50.288;28.624;2024-03-06T03:22:10;99266.14;;;2.50;97.32
60337;BME280;46978;50.288;28.624;2024-03-06T03:23:12;99268.69;;;2.48;97.33
60337;BME280;46978;50.288;28.624;2024-03-06T03:24:14;99268.66;;;2.47;97.46
60337;BME280;46978;50.288;28.624;2024-03-06T03:25:15;99263.55;;;2.47;97.49
60337;BME280;46978;50.288;28.624;2024-03-06T03:26:17;99266.12;;;2.48;97.54
60337;BME280;46978;50.288;28.624;2024-03-06T03:27:19;99272.12;;;2.50;97.50
60337;BME280;46978;50.288;28.624;2024-03-06T03:28:20;99271.28;;;2.51;97.49
60337;BME280;46978;50.288;28.624;2024-03-06T03:29:22;99270.44;;;2.51;97.55
60337;BME280;46978;50.288;28.624;2024-03-06T03:30:24;99270.44;;;2.51;97.46
60337;BME280;46978;50.288;28.624;2024-03-06T03:31:25;99271.25;;;2.48;97.61
60337;BME280;46978;50.288;28.624;2024-03-06T03:32:27;99272.95;;;2.48;97.66
60337;BME280;46978;50.288;28.624;2024-03-06T03:33:28;99278.06;;;2.46;97.76
60337;BME280;46978;50.288;28.624;2024-03-06T03:34:30;99277.18;;;2.46;97.86
60337;BME280;46978;50.288;28.624;2024-03-06T03:35:31;99277.16;;;2.44;97.84
60337;BME280;46978;50.288;28.624;2024-03-06T03:36:33;99279.72;;;2.44;97.86
60337;BME280;46978;50.288;28.624;2024-03-06T03:37:35;99278.88;;;2.44;97.92
60337;BME280;46978;50.288;28.624;2024-03-06T03:38:39;99269.45;;;2.43;98.03
60337;BME280;46978;50.288;28.624;2024-03-06T03:39:43;99278.83;;;2.41;98.20
60337;BME280;46978;50.288;28.624;2024-03-06T03:40:45;99285.69;;;2.42;98.16
60337;BME280;46978;50.288;28.624;2024-03-06T03:41:48;99274.56;;;2.41;98.08
60337;BME280;46978;50.288;28.624;2024-03-06T03:42:50;99279.68;;;2.41;98.09
60337;BME280;46978;50.288;28.624;2024-03-06T03:43:51;99273.64;;;2.36;98.24
60337;BME280;46978;50.288;28.624;2024-03-06T03:44:53;99278.79;;;2.38;98.35
60337;BME280;46978;50.288;28.624;2024-03-06T03:45:54;99283.06;;;2.37;98.47
60337;BME280;46978;50.288;28.624;2024-03-06T03:46:56;99283.91;;;2.38;98.53
60337;BME280;46978;50.288;28.624;2024-03-06T03:47:58;99282.20;;;2.38;98.50
60337;BME280;46978;50.288;28.624;2024-03-06T03:48:59;99289.03;;;2.38;98.60
60337;BME280;46978;50.288;28.624;2024-03-06T03:50:01;99288.16;;;2.36;98.96
60337;BME280;46978;50.288;28.624;2024-03-06T03:51:03;99290.70;;;2.34;98.91
60337;BME280;46978;50.288;28.624;2024-03-06T03:52:05;99290.66;;;2.31;99.04
60337;BME280;46978;50.288;28.624;2024-03-06T03:53:06;99293.17;;;2.28;99.27
60337;BME280;46978;50.288;28.624;2024-03-06T03:54:08;99289.73;;;2.27;99.22
60337;BME280;46978;50.288;28.624;2024-03-06T03:55:09;99302.53;;;2.27;99.27
60337;BME280;46978;50.288;28.624;2024-03-06T03:56:11;99299.97;;;2.27;99.29
60337;BME280;46978;50.288;28.624;2024-03-06T03:57:13;99299.13;;;2.27;99.47
60337;BME280;46978;50.288;28.624;2024-03-06T03:58:15;99299.14;;;2.28;99.63
60337;BME280;46978;50.288;28.624;2024-03-06T03:59:16;99300.87;;;2.29;99.78
60337;BME280;46978;50.288;28.624;2024-03-06T04:00:19;99300.00;;;2.29;99.94
60337;BME280;46978;50.288;28.624;2024-03-06T04:01:20;99298.30;;;2.28;99.88
60337;BME280;46978;50.288;28.624;2024-03-06T04:02:22;99301.69;;;2.27;100.00
60337;BME280;46978;50.288;28.624;2024-03-06T04:03:23;99294.00;;;2.27;99.93
60337;BME280;46978;50.288;28.624;2024-03-06T04:04:25;99299.97;;;2.27;99.87
60337;BME280;46978;50.288;28.624;2024-03-06T04:05:27;99298.27;;;2.26;100.00
60337;BME280;46978;50.288;28.624;2024-03-06T04:06:28;99302.48;;;2.24;100.00
60337;BME280;46978;50.288;28.624;2024-03-06T04:07:30;99300.77;;;2.22;100.00
60337;BME280;46978;50.288;28.624;2024-03-06T04:08:32;99300.79;;;2.23;100.00
60337;BME280;46978;50.288;28.624;2024-03-06T04:09:33;99301.64;;;2.24;100.00
60337;BME280;46978;50.288;28.624;2024-03-06T04:10:35;99304.20;;;2.24;100.00
60337;BME280;46978;50.288;28.624;2024-03-06T04:11:37;99300.79;;;2.23;100.00
60337;BME280;46978;50.288;28.624;2024-03-06T04:12:39;99293.09;;;2.22;100.00
60337;BME280;46978;50.288;28.624;2024-03-06T04:13:41;99293.94;;;2.22;100.00
60337;BME280;46978;50.288;28.624;2024-03-06T04:14:42;99296.50;;;2.22;100.00
60337;BME280;46978;50.288;28.624;2024-03-06T04:15:44;99300.77;;;2.22;100.00
60337;BME280;46978;50.288;28.624;2024-03-06T04:16:46;99300.77;;;2.22;100.00
60337;BME280;46978;50.288;28.624;2024-03-06T04:17:48;99296.48;;;2.21;100.00
60337;BME280;46978;50.288;28.624;2024-03-06T04:18:49;99304.98;;;2.20;100.00
60337;BME280;46978;50.288;28.624;2024-03-06T04:19:51;99298.14;;;2.17;100.00
60337;BME280;46978;50.288;28.624;2024-03-06T04:20:52;99303.27;;;2.17;100.00
60337;BME280;46978;50.288;28.624;2024-03-06T04:21:54;99302.38;;;2.17;100.00
60337;BME280;46978;50.288;28.624;2024-03-06T04:22:56;99304.09;;;2.16;100.00
60337;BME280;46978;50.288;28.624;2024-03-06T04:23:57;99294.67;;;2.15;100.00
60337;BME280;46978;50.288;28.624;2024-03-06T04:24:59;99305.80;;;2.15;100.00
60337;BME280;46978;50.288;28.624;2024-03-06T04:26:01;99300.67;;;2.15;100.00
60337;BME280;46978;50.288;28.624;2024-03-06T04:27:03;99297.23;;;2.15;100.00
60337;BME280;46978;50.288;28.624;2024-03-06T04:28:05;99303.22;;;2.14;100.00
60337;BME280;46978;50.288;28.624;2024-03-06T04:29:07;99303.22;;;2.14;100.00
60337;BME280;46978;50.288;28.624;2024-03-06T04:30:09;99301.48;;;2.13;100.00
60337;BME280;46978;50.288;28.624;2024-03-06T04:31:11;99304.05;;;2.13;100.00
60337;BME280;46978;50.288;28.624;2024-03-06T04:32:12;99300.61;;;2.11;100.00
60337;BME280;46978;50.288;28.624;2024-03-06T04:33:14;99303.95;;;2.07;100.00
60337;BME280;46978;50.288;28.624;2024-03-06T04:34:16;99305.64;;;2.05;100.00
60337;BME280;46978;50.288;28.624;2024-03-06T04:35:17;99308.17;;;2.03;100.00
60337;BME280;46978;50.288;28.624;2024-03-06T04:36:19;99307.29;;;2.03;100.00
60337;BME280;46978;50.288;28.624;2024-03-06T04:37:20;99305.61;;;2.03;100.00
60337;BME280;46978;50.288;28.624;2024-03-06T04:38:22;99309.02;;;2.04;100.00
60337;BME280;46978;50.288;28.624;2024-03-06T04:39:24;99309.84;;;2.03;100.00
60337;BME280;46978;50.288;28.624;2024-03-06T04:40:25;99309.83;;;2.01;100.00
60337;BME280;46978;50.288;28.624;2024-03-06T04:41:27;99318.38;;;2.02;100.00
60337;BME280;46978;50.288;28.624;2024-03-06T04:42:29;99317.48;;;2.00;100.00
60337;BME280;46978;50.288;28.624;2024-03-06T04:43:30;99311.48;;;1.97;100.00
60337;BME280;46978;50.288;28.624;2024-03-06T04:44:35;99321.72;;;1.97;100.00
60337;BME280;46978;50.288;28.624;2024-03-06T04:45:37;99318.27;;;1.94;100.00
60337;BME280;46978;50.288;28.624;2024-03-06T04:46:39;99322.50;;;1.93;100.00
60337;BME280;46978;50.288;28.624;2024-03-06T04:47:41;99321.63;;;1.91;100.00
60337;BME280;46978;50.288;28.624;2024-03-06T04:48:43;99326.67;;;1.87;100.00
60337;BME280;46978;50.288;28.624;2024-03-06T04:49:44;99323.28;;;1.88;100.00
60337;BME280;46978;50.288;28.624;2024-03-06T04:50:46;99318.16;;;1.88;100.00
60337;BME280;46978;50.288;28.624;2024-03-06T04:51:48;99317.28;;;1.87;100.00
60337;BME280;46978;50.288;28.624;2024-03-06T04:52:49;99328.41;;;1.88;100.00
60337;BME280;46978;50.288;28.624;2024-03-06T04:53:51;99319.84;;;1.87;100.00
60337;BME280;46978;50.288;28.624;2024-03-06T04:54:52;99316.45;;;1.88;100.00
60337;BME280;46978;50.288;28.624;2024-03-06T04:55:54;99324.13;;;1.88;100.00
60337;BME280;46978;50.288;28.624;2024-03-06T04:56:56;99320.73;;;1.88;100.00
60337;BME280;46978;50.288;28.624;2024-03-06T04:57:57;99323.23;;;1.85;100.00
60337;BME280;46978;50.288;28.624;2024-03-06T04:58:59;99323.26;;;1.86;100.00
60337;BME280;46978;50.288;28.624;2024-03-06T05:00:00;99328.38;;;1.86;100.00
60337;BME280;46978;50.288;28.624;2024-03-06T05:01:02;99326.64;;;1.85;100.00
60337;BME280;46978;50.288;28.624;2024-03-06T05:02:04;99332.61;;;1.86;100.00
60337;BME280;46978;50.288;28.624;2024-03-06T05:03:05;99331.76;;;1.85;100.00
60337;BME280;46978;50.288;28.624;2024-03-06T05:04:07;99333.47;;;1.85;100.00
60337;BME280;46978;50.288;28.624;2024-03-06T05:05:10;99336.85;;;1.84;100.00
60337;BME280;46978;50.288;28.624;2024-03-06T05:06:12;99335.98;;;1.82;100.00
60337;BME280;46978;50.288;28.624;2024-03-06T05:07:14;99335.12;;;1.83;100.00
60337;BME280;46978;50.288;28.624;2024-03-06T05:08:15;99335.12;;;1.83;100.00
60337;BME280;46978;50.288;28.624;2024-03-06T05:09:17;99332.59;;;1.84;100.00
60337;BME280;46978;50.288;28.624;2024-03-06T05:10:19;99331.73;;;1.84;100.00
60337;BME280;46978;50.288;28.624;2024-03-06T05:11:20;99336.85;;;1.84;100.00
60337;BME280;46978;50.288;28.624;2024-03-06T05:12:22;99332.59;;;1.84;100.00
60337;BME280;46978;50.288;28.624;2024-03-06T05:13:24;99330.00;;;1.83;100.00
60337;BME280;46978;50.288;28.624;2024-03-06T05:14:26;99337.65;;;1.81;100.00
60337;BME280;46978;50.288;28.624;2024-03-06T05:15:27;99332.53;;;1.81;100.00
60337;BME280;46978;50.288;28.624;2024-03-06T05:16:29;99336.83;;;1.82;100.00
60337;BME280;46978;50.288;28.624;2024-03-06T05:17:31;99335.14;;;1.84;100.00
60337;BME280;46978;50.288;28.624;2024-03-06T05:18:34;99340.26;;;1.84;100.00
60337;BME280;46978;50.288;28.624;2024-03-06T05:19:36;99336.00;;;1.83;100.00
60337;BME280;46978;50.288;28.624;2024-03-06T05:20:37;99339.41;;;1.84;100.00
60337;BME280;46978;50.288;28.624;2024-03-06T05:21:39;99341.14;;;1.85;100.00
60337;BME280;46978;50.288;28.624;2024-03-06T05:22:40;99338.59;;;1.85;100.00
60337;BME280;46978;50.288;28.624;2024-03-06T05:23:42;99349.64;;;1.84;100.00
60337;BME280;46978;50.288;28.624;2024-03-06T05:24:44;99346.19;;;1.80;100.00
60337;BME280;46978;50.288;28.624;2024-03-06T05:25:46;99352.16;;;1.81;100.00
60337;BME280;46978;50.288;28.624;2024-03-06T05:26:47;99346.98;;;1.77;100.00